Time;durP1;ratioP1;P1;durP2;ratioP2;P2;SDS_P1;SDS_P2;PMS_P1;PMS_P2;Temp;Humidity;BMP_temperature;BMP_pressure;BME280_temperature;BME280_humidity;BME280_pressure;Samples;Min_cycle;Max_cycle;Signal;HPM_P1;HPM_P2
2021/10/09 00:02:23;;;;;;;1999.90;999.90;;;;;;;6.43;49.08;102728.28;5020896;27;98605;-72
2021/10/09 00:04:51;;;;;;;1999.90;999.90;;;;;;;6.41;49.19;102732.53;5019461;27;97190;-75
2021/10/09 00:07:20;;;;;;;1999.90;999.90;;;;;;;6.40;49.24;102732.44;5003717;28;97210;-72
2021/10/09 00:09:52;;;;;;;1999.90;999.90;;;;;;;6.38;49.15;102731.41;5020181;27;99427;-73
2021/10/09 00:12:20;;;;;;;1999.90;999.90;;;;;;;6.35;49.21;102726.81;5021922;27;100008;-70
2021/10/09 00:14:48;;;;;;;1999.90;999.90;;;;;;;6.34;49.13;102734.66;5017319;27;96891;-72
2021/10/09 00:17:18;;;;;;;1999.90;999.90;;;;;;;6.79;47.64;102735.13;5016917;27;97072;-73
2021/10/09 00:19:46;;;;;;;1999.90;999.90;;;;;;;6.95;47.30;102727.41;5018881;27;97148;-72
2021/10/09 00:22:14;;;;;;;1999.90;999.90;;;;;;;7.03;46.88;102734.13;4999908;28;97790;-72
2021/10/09 00:24:43;;;;;;;1999.90;999.90;;;;;;;7.07;46.51;102718.53;5003528;27;96767;-74
2021/10/09 00:27:11;;;;;;;1999.90;999.90;;;;;;;7.10;46.67;102717.84;4999656;28;97930;-73
2021/10/09 00:29:39;;;;;;;1999.90;999.90;;;;;;;7.14;46.39;102725.16;5019072;27;100568;-73
2021/10/09 00:32:07;;;;;;;1999.90;999.90;;;;;;;7.17;46.21;102723.63;5019783;27;98089;-73
2021/10/09 00:34:35;;;;;;;1999.90;999.90;;;;;;;7.19;46.52;102723.72;5013554;27;98625;-75
2021/10/09 00:37:03;;;;;;;1999.90;999.90;;;;;;;7.20;46.13;102722.91;4987467;27;102144;-76
2021/10/09 00:39:32;;;;;;;1999.90;999.90;;;;;;;7.21;46.33;102716.81;5006517;27;98942;-72
2021/10/09 00:42:01;;;;;;;1999.90;999.90;;;;;;;7.22;46.02;102723.91;4992692;28;100517;-75
2021/10/09 00:44:28;;;;;;;1999.90;999.90;;;;;;;7.23;46.30;102721.41;4991183;27;97709;-74
2021/10/09 00:47:01;;;;;;;1999.90;999.90;;;;;;;7.25;45.99;102725.03;5016992;27;98283;-75
2021/10/09 00:49:29;;;;;;;1999.90;999.90;;;;;;;7.25;46.17;102727.69;5003412;28;99178;-74
2021/10/09 00:51:59;;;;;;;1999.90;999.90;;;;;;;7.26;45.77;102720.66;5037246;27;99000;-73
2021/10/09 00:54:27;;;;;;;1999.90;999.90;;;;;;;7.26;45.68;102725.97;5022762;27;98259;-74
2021/10/09 00:56:58;;;;;;;1999.90;999.90;;;;;;;7.28;45.59;102719.03;5023720;27;96855;-72
2021/10/09 00:59:28;;;;;;;1999.90;999.90;;;;;;;7.27;45.39;102724.25;5004572;28;99313;-73
2021/10/09 01:01:59;;;;;;;1999.90;999.90;;;;;;;7.28;45.55;102716.38;5006704;28;97882;-73
2021/10/09 01:04:28;;;;;;;1999.90;999.90;;;;;;;7.27;45.59;102717.22;5022963;27;96831;-72
2021/10/09 01:06:56;;;;;;;1999.90;999.90;;;;;;;7.27;45.24;102711.91;4987145;28;98609;-74
2021/10/09 01:09:25;;;;;;;1999.90;999.90;;;;;;;7.26;45.04;102718.00;4997274;28;99298;-73
2021/10/09 01:11:53;;;;;;;1999.90;999.90;;;;;;;7.24;45.27;102714.34;4994654;28;99563;-72
2021/10/09 01:14:25;;;;;;;1999.90;999.90;;;;;;;7.24;45.15;102711.69;5016241;27;97383;-69
2021/10/09 01:16:54;;;;;;;1999.90;999.90;;;;;;;7.24;45.15;102712.63;5018961;27;97577;-72
2021/10/09 01:19:22;;;;;;;1999.90;999.90;;;;;;;7.24;45.42;102706.41;5004332;27;100257;-70
2021/10/09 01:21:55;;;;;;;1999.90;999.90;;;;;;;7.24;45.15;102709.06;5003633;27;99759;-73
2021/10/09 01:24:27;;;;;;;1999.90;999.90;;;;;;;7.25;45.47;102714.44;5002469;28;97707;-72
2021/10/09 01:26:55;;;;;;;1999.90;999.90;;;;;;;7.23;44.95;102710.81;5019446;27;97151;-72
2021/10/09 01:29:26;;;;;;;1999.90;999.90;;;;;;;7.23;45.13;102707.25;5024668;27;97740;-73
2021/10/09 01:31:56;;;;;;;1999.90;999.90;;;;;;;7.21;45.05;102711.50;5004340;28;98739;-71
2021/10/09 01:34:26;;;;;;;1999.90;999.90;;;;;;;7.18;45.22;102704.28;5022779;27;97519;-72
2021/10/09 01:37:01;;;;;;;1999.90;999.90;;;;;;;7.18;45.07;102700.72;5021114;27;97115;-71
2021/10/09 01:39:33;;;;;;;1999.90;999.90;;;;;;;7.17;45.29;102698.88;5004342;27;97249;-71
2021/10/09 01:42:01;;;;;;;1999.90;999.90;;;;;;;7.17;45.23;102704.19;5004149;28;99669;-72
2021/10/09 01:44:31;;;;;;;1999.90;999.90;;;;;;;7.17;45.34;102704.19;5002776;28;97145;-73
2021/10/09 01:46:59;;;;;;;1999.90;999.90;;;;;;;7.18;45.42;102703.38;5005352;27;97597;-71
2021/10/09 01:49:33;;;;;;;1999.90;999.90;;;;;;;7.19;45.06;102697.25;4999129;27;97582;-74
2021/10/09 01:52:08;;;;;;;1999.90;999.90;;;;;;;7.18;44.98;102704.28;5020644;27;97055;-74
2021/10/09 01:54:38;;;;;;;1999.90;999.90;;;;;;;7.17;44.83;102701.53;5005701;27;97651;-72
2021/10/09 01:57:07;;;;;;;1999.90;999.90;;;;;;;7.15;44.98;102701.44;4997849;27;97156;-74
2021/10/09 01:59:35;;;;;;;1999.90;999.90;;;;;;;7.12;44.77;102701.25;5021423;27;98681;-72
2021/10/09 02:02:09;;;;;;;1999.90;999.90;;;;;;;7.12;45.26;102700.31;5013235;27;99271;-72
2021/10/09 02:04:38;;;;;;;1999.90;999.90;;;;;;;7.11;44.84;102709.06;5019469;27;97622;-71
2021/10/09 02:07:13;;;;;;;1999.90;999.90;;;;;;;7.09;44.94;102698.38;5011590;28;98423;-72
2021/10/09 02:09:41;;;;;;;1999.90;999.90;;;;;;;7.08;45.17;102701.84;5003052;28;98857;-72
2021/10/09 02:12:09;;;;;;;1999.90;999.90;;;;;;;7.05;45.22;102701.63;5018754;27;99943;-74
2021/10/09 02:14:43;;;;;;;1999.90;999.90;;;;;;;7.04;44.71;102688.31;5020119;27;96994;-72
2021/10/09 02:17:29;;;;;;;1999.90;999.90;;;;;;;7.02;44.82;102695.22;5001985;28;96996;-71
2021/10/09 02:25:44;;;;;;;1999.90;999.90;;;;;;;6.96;44.65;102692.19;5018619;27;96959;-71
2021/10/09 02:28:16;;;;;;;1999.90;999.90;;;;;;;6.93;44.92;102702.56;5003662;28;97638;-72
2021/10/09 02:30:44;;;;;;;1999.90;999.90;;;;;;;6.88;45.01;102698.69;5002275;27;98934;-72
2021/10/09 02:33:13;;;;;;;1999.90;999.90;;;;;;;6.85;45.13;102699.41;5008425;27;97770;-75
2021/10/09 02:35:41;;;;;;;1999.90;999.90;;;;;;;6.83;45.11;102700.13;5003841;28;97165;-74
2021/10/09 02:38:11;;;;;;;1999.90;999.90;;;;;;;6.81;45.19;102691.16;5003655;27;97333;-75
2021/10/09 02:40:42;;;;;;;1999.90;999.90;;;;;;;6.77;44.89;102695.34;5001331;28;99195;-72
2021/10/09 02:43:10;;;;;;;1999.90;999.90;;;;;;;6.75;44.82;102701.34;5002969;28;99241;-73
2021/10/09 02:45:38;;;;;;;1999.90;999.90;;;;;;;6.72;45.38;102693.19;5019570;28;97338;-71
2021/10/09 02:48:08;;;;;;;1999.90;999.90;;;;;;;6.70;45.00;102693.09;5003854;28;97977;-72
2021/10/09 02:50:42;;;;;;;1999.90;999.90;;;;;;;6.67;45.17;102697.28;5017724;27;98382;-73
2021/10/09 02:53:12;;;;;;;1999.90;999.90;;;;;;;6.62;45.54;102699.59;5001650;28;99700;-74
2021/10/09 02:55:40;;;;;;;1999.90;999.90;;;;;;;6.61;45.38;102703.06;5003624;28;97474;-74
2021/10/09 02:58:08;;;;;;;1999.90;999.90;;;;;;;6.59;45.19;102696.75;5002753;28;97928;-72
2021/10/09 03:00:36;;;;;;;1999.90;999.90;;;;;;;6.58;45.47;102702.84;5027401;27;99007;-71
2021/10/09 03:03:04;;;;;;;1999.90;999.90;;;;;;;6.55;45.64;102700.00;5016310;27;97957;-72
2021/10/09 03:05:32;;;;;;;1999.90;999.90;;;;;;;6.50;45.60;102698.78;5019618;27;97040;-71
2021/10/09 03:08:00;;;;;;;1999.90;999.90;;;;;;;6.48;45.39;102702.13;5017844;27;97535;-72
2021/10/09 03:10:29;;;;;;;1999.90;999.90;;;;;;;6.45;45.30;102694.88;4998550;28;99395;-72
2021/10/09 03:12:57;;;;;;;1999.90;999.90;;;;;;;6.46;45.60;102711.69;5018887;27;97929;-73
2021/10/09 03:15:25;;;;;;;1999.90;999.90;;;;;;;6.44;45.02;102705.38;5019584;27;97696;-72
2021/10/09 03:17:55;;;;;;;1999.90;999.90;;;;;;;6.42;45.61;102707.91;5003489;27;97645;-72
2021/10/09 03:20:23;;;;;;;1999.90;999.90;;;;;;;6.40;45.53;102712.16;5000688;28;100146;-72
2021/10/09 03:22:51;;;;;;;1999.90;999.90;;;;;;;6.38;45.54;102707.63;5017731;27;100194;-73
2021/10/09 03:25:19;;;;;;;1999.90;999.90;;;;;;;6.38;45.45;102710.25;4999844;28;97048;-74
2021/10/09 03:27:48;;;;;;;1999.90;999.90;;;;;;;6.34;45.23;102716.13;5010129;27;97271;-73
2021/10/09 03:30:17;;;;;;;1999.90;999.90;;;;;;;6.31;45.16;102715.91;5017160;27;97504;-73
2021/10/09 03:32:45;;;;;;;1999.90;999.90;;;;;;;6.28;45.69;102711.34;4996996;28;100178;-75
2021/10/09 03:35:13;;;;;;;1999.90;999.90;;;;;;;6.28;45.51;102721.00;5020871;27;97461;-72
2021/10/09 03:37:42;;;;;;;1999.90;999.90;;;;;;;6.23;45.57;102723.31;5019795;27;97403;-74
2021/10/09 03:40:14;;;;;;;1999.90;999.90;;;;;;;6.18;45.72;102719.41;5000364;28;97861;-73
2021/10/09 03:42:46;;;;;;;1999.90;999.90;;;;;;;6.16;45.63;102719.28;5000063;28;98893;-72
2021/10/09 03:45:21;;;;;;;1999.90;999.90;;;;;;;6.17;45.38;102720.22;5001428;28;97543;-74
2021/10/09 03:53:23;;;;;;;1999.90;999.90;;;;;;;6.12;45.67;102725.16;5000576;28;97841;-72
2021/10/09 03:55:51;;;;;;;1999.90;999.90;;;;;;;6.11;45.69;102726.00;4998615;27;96831;-74
2021/10/09 03:58:19;;;;;;;1999.90;999.90;;;;;;;6.10;45.63;102728.53;5001383;28;97288;-74
2021/10/09 04:00:51;;;;;;;1999.90;999.90;;;;;;;6.08;45.44;102728.44;4999361;27;98538;-74
2021/10/09 04:03:19;;;;;;;1999.90;999.90;;;;;;;6.07;45.78;102731.88;5005750;28;100251;-72
2021/10/09 04:05:48;;;;;;;1999.90;999.90;;;;;;;6.05;45.23;102728.19;5016819;27;98010;-70
2021/10/09 04:08:16;;;;;;;1999.90;999.90;;;;;;;6.03;45.52;102724.53;5016077;27;97295;-70
2021/10/09 04:10:43;;;;;;;1999.90;999.90;;;;;;;6.00;45.72;102726.97;5016332;27;98637;-73
2021/10/09 04:13:11;;;;;;;1999.90;999.90;;;;;;;5.98;45.74;102733.88;5000282;27;99861;-72
2021/10/09 04:15:39;;;;;;;1999.90;999.90;;;;;;;5.95;45.49;102728.38;5019527;27;97918;-73
2021/10/09 04:18:09;;;;;;;1999.90;999.90;;;;;;;5.94;45.55;102723.88;5018435;27;97043;-73
2021/10/09 04:20:39;;;;;;;1999.90;999.90;;;;;;;5.92;45.68;102725.50;5002702;28;98054;-74
2021/10/09 04:23:07;;;;;;;1999.90;999.90;;;;;;;5.92;45.44;102729.88;5021137;27;99171;-73
2021/10/09 04:25:36;;;;;;;1999.90;999.90;;;;;;;5.91;45.26;102728.03;5021885;28;96925;-72
2021/10/09 04:28:04;;;;;;;1999.90;999.90;;;;;;;5.87;45.53;102725.97;5004471;27;98008;-72
2021/10/09 04:30:34;;;;;;;1999.90;999.90;;;;;;;5.88;45.84;102727.81;5003204;27;101210;-72
2021/10/09 04:33:02;;;;;;;1999.90;999.90;;;;;;;5.85;45.84;102733.81;5020788;27;97647;-73
2021/10/09 04:35:33;;;;;;;1999.90;999.90;;;;;;;5.82;45.62;102725.66;5020526;27;96793;-73
2021/10/09 04:38:05;;;;;;;1999.90;999.90;;;;;;;5.80;45.52;102740.50;5002371;27;98039;-71
2021/10/09 04:40:35;;;;;;;1999.90;999.90;;;;;;;5.76;45.65;102725.22;4982522;28;99642;-73
2021/10/09 04:43:03;;;;;;;1999.90;999.90;;;;;;;5.74;45.53;102729.47;5013439;27;98202;-72
2021/10/09 04:45:31;;;;;;;1999.90;999.90;;;;;;;5.72;45.79;102731.09;5003886;28;97481;-73
2021/10/09 04:48:04;;;;;;;1999.90;999.90;;;;;;;5.69;45.59;102736.16;5022859;27;97306;-72
2021/10/09 04:50:35;;;;;;;1999.90;999.90;;;;;;;5.64;45.61;102732.28;5005317;28;101181;-73
2021/10/09 04:53:07;;;;;;;1999.90;999.90;;;;;;;5.63;45.75;102735.72;5020185;27;98292;-73
2021/10/09 04:55:34;;;;;;;1999.90;999.90;;;;;;;5.61;45.88;102741.72;5021881;28;97719;-73
2021/10/09 04:58:03;;;;;;;1999.90;999.90;;;;;;;5.58;45.97;102745.03;5006415;27;98121;-75
2021/10/09 05:00:33;;;;;;;1999.90;999.90;;;;;;;5.55;45.84;102739.53;5004729;28;99648;-75
2021/10/09 05:03:01;;;;;;;1999.90;999.90;;;;;;;5.55;45.75;102741.25;5020560;27;97692;-75
2021/10/09 05:05:32;;;;;;;1999.90;999.90;;;;;;;5.53;46.06;102743.78;5021764;27;97063;-73
2021/10/09 05:08:02;;;;;;;1999.90;999.90;;;;;;;5.52;45.71;102746.31;5018485;27;97576;-71
2021/10/09 05:10:30;;;;;;;1999.90;999.90;;;;;;;5.49;45.74;102747.00;5012736;27;98611;-73
2021/10/09 05:13:07;;;;;;;1999.90;999.90;;;;;;;5.48;45.80;102747.84;5000293;28;99922;-76
2021/10/09 05:15:40;;;;;;;1999.90;999.90;;;;;;;5.47;45.90;102747.69;4996140;27;97465;-72
2021/10/09 05:18:09;;;;;;;1999.90;999.90;;;;;;;5.45;46.19;102750.22;5013522;27;97176;-72
2021/10/09 05:20:38;;;;;;;1999.90;999.90;;;;;;;5.42;46.02;102755.28;5009401;27;98237;-71
2021/10/09 05:23:07;;;;;;;1999.90;999.90;;;;;;;5.41;46.03;102761.38;5001697;27;98220;-72
2021/10/09 05:25:37;;;;;;;1999.90;999.90;;;;;;;5.39;45.96;102760.38;4996017;27;97012;-72
2021/10/09 05:28:06;;;;;;;1999.90;999.90;;;;;;;5.36;45.95;102765.41;5018685;27;97629;-73
2021/10/09 05:30:36;;;;;;;1999.90;999.90;;;;;;;5.36;46.00;102769.78;5000972;28;99841;-72
2021/10/09 05:33:19;;;;;;;1999.90;999.90;;;;;;;5.32;46.09;102758.03;5018622;27;99305;-73
2021/10/09 05:35:47;;;;;;;1999.90;999.90;;;;;;;5.33;46.01;102764.25;5020455;28;96931;-73
2021/10/09 05:38:17;;;;;;;1999.90;999.90;;;;;;;5.32;45.89;102765.06;5019657;27;97793;-73
2021/10/09 05:40:47;;;;;;;1999.90;999.90;;;;;;;5.29;46.15;102768.41;5003284;28;99720;-72
2021/10/09 05:43:15;;;;;;;1999.90;999.90;;;;;;;5.28;46.14;102769.22;5019320;27;97812;-75
2021/10/09 05:45:43;;;;;;;1999.90;999.90;;;;;;;5.26;45.98;102769.88;5018822;27;97530;-72
2021/10/09 05:48:12;;;;;;;1999.90;999.90;;;;;;;5.25;46.04;102768.06;5016887;27;97383;-72
2021/10/09 05:50:48;;;;;;;1999.90;999.90;;;;;;;5.23;46.19;102783.75;5001388;27;101057;-75
2021/10/09 05:53:41;;;;;;;1999.90;999.90;;;;;;;4.83;47.12;102777.19;5002537;28;100252;-72
2021/10/09 05:56:10;;;;;;;1999.90;999.90;;;;;;;4.64;47.59;102780.94;4998465;28;97227;-71
2021/10/09 05:58:50;;;;;;;1999.90;999.90;;;;;;;4.51;47.97;102786.06;5002340;28;97068;-72
2021/10/09 06:01:36;;;;;;;1999.90;999.90;;;;;;;4.40;48.08;102785.25;5004613;27;99373;-73
2021/10/09 06:32:23;;;;;;;1999.90;999.90;;;;;;;3.96;49.05;102818.63;4978816;27;97413;-72
2021/10/09 06:46:54;;;;;;;1999.90;999.90;;;;;;;3.98;48.83;102819.69;4949347;28;97143;-71
2021/10/09 07:00:24;;;;;;;1999.90;999.90;;;;;;;4.09;49.03;102825.81;5010845;27;97694;-73
2021/10/09 07:02:54;;;;;;;1999.90;999.90;;;;;;;4.13;48.77;102826.16;4988187;28;97707;-69
2021/10/09 07:05:22;;;;;;;1999.90;999.90;;;;;;;4.16;48.33;102830.75;5011516;27;97762;-69
2021/10/09 07:08:19;;;;;;;1999.90;999.90;;;;;;;4.16;48.90;102831.69;4994976;28;99791;-73
2021/10/09 07:11:02;;;;;;;1999.90;999.90;;;;;;;4.20;48.92;102841.69;4995518;28;100272;-71
2021/10/09 07:13:30;;;;;;;1999.90;999.90;;;;;;;4.23;49.09;102840.97;5017726;27;96952;-74
2021/10/09 07:16:00;;;;;;;1999.90;999.90;;;;;;;4.28;48.96;102844.88;5015144;27;96855;-74
2021/10/09 07:18:32;;;;;;;1999.90;999.90;;;;;;;4.30;48.90;102845.94;5017598;27;97617;-71
2021/10/09 07:21:01;;;;;;;1999.90;999.90;;;;;;;4.32;48.73;102844.34;4997638;27;100565;-72
2021/10/09 07:23:30;;;;;;;1999.90;999.90;;;;;;;4.35;48.75;102851.59;4973314;28;97461;-75
2021/10/09 07:25:59;;;;;;;1999.90;999.90;;;;;;;4.39;48.79;102851.94;5019326;27;96943;-70
2021/10/09 07:28:29;;;;;;;1999.90;999.90;;;;;;;4.87;47.75;102849.56;5003526;28;101152;-70
2021/10/09 07:30:59;;;;;;;1999.90;999.90;;;;;;;4.70;48.07;102840.34;5020635;27;98885;-71
2021/10/09 07:33:29;;;;;;;1999.90;999.90;;;;;;;4.71;48.22;102852.75;5008138;28;97468;-69
2021/10/09 07:35:57;;;;;;;1999.90;999.90;;;;;;;4.74;48.45;102846.78;4984144;28;98230;-74
2021/10/09 07:38:24;;;;;;;1999.90;999.90;;;;;;;4.78;48.39;102843.56;5015014;27;99188;-72
2021/10/09 07:40:53;;;;;;;1999.90;999.90;;;;;;;4.80;48.35;102848.19;4997706;28;99560;-74
2021/10/09 07:43:22;;;;;;;1999.90;999.90;;;;;;;4.82;48.33;102845.66;5013713;27;97854;-73
2021/10/09 07:45:50;;;;;;;1999.90;999.90;;;;;;;4.86;48.57;102853.00;5015803;28;97269;-71
2021/10/09 07:48:18;;;;;;;1999.90;999.90;;;;;;;4.88;48.33;102847.03;5017514;28;100656;-70
2021/10/09 07:50:47;;;;;;;1999.90;999.90;;;;;;;4.90;48.78;102855.09;5006616;27;100075;-70
2021/10/09 07:53:15;;;;;;;1999.90;999.90;;;;;;;4.95;48.41;102846.72;5014939;27;96971;-72
2021/10/09 07:55:43;;;;;;;1999.90;999.90;;;;;;;5.01;48.46;102849.81;5001382;27;97019;-73
2021/10/09 07:58:11;;;;;;;1999.90;999.90;;;;;;;5.04;48.35;102855.38;5007269;27;98014;-74
2021/10/09 08:00:47;;;;;;;1999.90;999.90;;;;;;;5.08;48.16;102851.25;5013424;27;99619;-75
2021/10/09 08:03:18;;;;;;;1999.90;999.90;;;;;;;5.14;48.08;102852.63;5016508;27;97731;-70
2021/10/09 08:05:49;;;;;;;1999.90;999.90;;;;;;;5.22;48.01;102850.56;5015563;27;97508;-72
2021/10/09 08:08:17;;;;;;;1999.90;999.90;;;;;;;5.27;48.10;102857.09;5016870;27;99989;-72
2021/10/09 08:10:45;;;;;;;1999.90;999.90;;;;;;;5.32;47.86;102847.81;5013546;27;98302;-72
2021/10/09 08:13:16;;;;;;;1999.90;999.90;;;;;;;5.35;47.89;102853.34;5013518;27;97809;-69
2021/10/09 08:15:45;;;;;;;1999.90;999.90;;;;;;;5.40;47.79;102861.59;5001158;27;98595;-71
2021/10/09 08:18:13;;;;;;;1999.90;999.90;;;;;;;5.45;47.83;102847.03;5023290;27;99179;-69
2021/10/09 08:20:43;;;;;;;1999.90;999.90;;;;;;;5.51;47.84;102847.47;5019825;27;100021;-74
2021/10/09 08:23:16;;;;;;;1999.90;999.90;;;;;;;5.56;47.52;102848.72;5015369;27;97985;-70
2021/10/09 08:38:45;;;;;;;1999.90;999.90;;;;;;;6.23;46.18;102837.88;4989721;27;97586;-71
2021/10/09 08:40:11;;;;;;;1999.90;999.90;;;;;;;6.10;46.48;102829.88;5023966;27;99060;-69
2021/10/09 08:42:39;;;;;;;1999.90;999.90;;;;;;;6.14;46.63;102829.28;5021091;27;101479;-71
2021/10/09 08:45:11;;;;;;;1999.90;999.90;;;;;;;6.18;46.46;102836.63;5020394;27;96925;-73
2021/10/09 08:47:57;;;;;;;1999.90;999.90;;;;;;;6.25;46.67;102837.97;5027524;27;97715;-69
2021/10/09 08:50:26;;;;;;;1999.90;999.90;;;;;;;6.30;46.40;102830.41;5023056;28;98357;-69
2021/10/09 08:53:00;;;;;;;1999.90;999.90;;;;;;;6.36;46.46;102825.56;5002070;28;98329;-70
2021/10/09 08:55:31;;;;;;;1999.90;999.90;;;;;;;6.39;46.39;102820.50;5002365;27;97625;-70
2021/10/09 08:58:05;;;;;;;1999.90;999.90;;;;;;;6.47;46.70;102821.97;5001818;27;97247;-73
2021/10/09 09:00:47;;;;;;;1999.90;999.90;;;;;;;6.53;46.04;102818.00;4996750;27;98528;-72
2021/10/09 09:03:18;;;;;;;1999.90;999.90;;;;;;;6.59;46.45;102812.22;5008424;27;100161;-70
2021/10/09 09:06:02;;;;;;;1999.90;999.90;;;;;;;6.65;46.09;102815.31;5013385;27;97455;-70
2021/10/09 09:26:00;;;;;;;1999.90;999.90;;;;;;;7.56;42.86;102812.78;5015039;27;100244;-72
2021/10/09 09:34:20;;;;;;;1999.90;999.90;;;;;;;7.49;43.50;102802.56;5016878;27;97617;-70
2021/10/09 09:37:06;;;;;;;1999.90;999.90;;;;;;;7.54;43.51;102809.09;5017300;27;98585;-70
2021/10/09 09:39:38;;;;;;;1999.90;999.90;;;;;;;7.57;43.45;102804.00;5021616;27;97598;-70
2021/10/09 09:42:07;;;;;;;1999.90;999.90;;;;;;;7.61;43.63;102800.75;5028351;27;96888;-72
2021/10/09 09:44:38;;;;;;;1999.90;999.90;;;;;;;7.65;43.54;102800.13;5001925;28;98028;-74
2021/10/09 09:47:08;;;;;;;1999.90;999.90;;;;;;;7.71;43.88;102797.84;5002140;28;98620;-72
2021/10/09 09:49:55;;;;;;;1999.90;999.90;;;;;;;7.78;43.50;102807.13;5005513;28;96837;-70
2021/10/09 09:52:24;;;;;;;1999.90;999.90;;;;;;;7.83;43.63;102811.00;5006734;28;96994;-70
2021/10/09 09:54:52;;;;;;;1999.90;999.90;;;;;;;8.10;41.12;102802.13;5002335;27;98868;-71
2021/10/09 09:57:21;;;;;;;1999.90;999.90;;;;;;;8.03;41.58;102803.50;5020733;27;99205;-71
2021/10/09 09:59:52;;;;;;;1999.90;999.90;;;;;;;8.06;42.04;102814.28;5021709;28;97102;-70
2021/10/09 10:02:21;;;;;;;1999.90;999.90;;;;;;;8.30;39.85;102798.06;5023320;27;98573;-72
2021/10/09 10:04:50;;;;;;;1999.90;999.90;;;;;;;8.23;40.79;102802.09;5024809;27;99261;-72
2021/10/09 10:07:18;;;;;;;1999.90;999.90;;;;;;;8.48;39.56;102805.47;5019378;27;97741;-72
2021/10/09 10:09:46;;;;;;;1999.90;999.90;;;;;;;8.61;38.39;102807.13;5020327;27;96909;-70
2021/10/09 10:12:14;;;;;;;1999.90;999.90;;;;;;;8.51;39.39;102800.38;5004906;27;97489;-73
2021/10/09 10:14:43;;;;;;;1999.90;999.90;;;;;;;8.52;39.61;102799.53;5020560;27;98952;-73
2021/10/09 10:17:12;;;;;;;1999.90;999.90;;;;;;;8.55;39.89;102801.47;5000640;28;97307;-71
2021/10/09 10:20:06;;;;;;;1999.90;999.90;;;;;;;8.56;39.34;102805.94;5020583;27;97912;-69
2021/10/09 10:22:55;;;;;;;1999.90;999.90;;;;;;;8.60;39.01;102805.31;5001744;28;97558;-70
2021/10/09 10:25:31;;;;;;;1999.90;999.90;;;;;;;8.64;39.79;102805.59;5017368;27;99041;-69
2021/10/09 10:28:00;;;;;;;1999.90;999.90;;;;;;;8.67;40.54;102805.81;4997894;28;97896;-69
2021/10/09 10:30:31;;;;;;;1999.90;999.90;;;;;;;8.69;40.40;102792.63;5013958;27;96758;-71
2021/10/09 10:33:29;;;;;;;1999.90;999.90;;;;;;;8.77;40.52;102792.25;5012078;27;98022;-67
2021/10/09 10:35:58;;;;;;;1999.90;999.90;;;;;;;8.99;38.74;102789.13;4993876;27;97875;-69
2021/10/09 10:38:59;;;;;;;1999.90;999.90;;;;;;;8.90;38.34;102793.88;5013511;27;98072;-70
2021/10/09 10:41:58;;;;;;;1999.90;999.90;;;;;;;8.92;38.37;102785.19;5021364;27;97114;-71
2021/10/09 10:44:50;;;;;;;1999.90;999.90;;;;;;;9.02;39.63;102794.63;4985768;27;97462;-68
2021/10/09 10:47:43;;;;;;;1999.90;999.90;;;;;;;9.20;37.04;102787.75;5016742;27;97147;-71
2021/10/09 10:50:49;;;;;;;1999.90;999.90;;;;;;;9.17;37.43;102779.59;4996790;28;98875;-67
2021/10/09 10:53:24;;;;;;;1999.90;999.90;;;;;;;9.22;38.76;102788.75;5019972;27;97347;-67
2021/10/09 10:56:05;;;;;;;1999.90;999.90;;;;;;;9.25;38.13;102788.94;5021021;28;96963;-69
2021/10/09 10:58:33;;;;;;;1999.90;999.90;;;;;;;9.29;38.92;102782.97;5015935;28;98494;-68
2021/10/09 11:01:18;;;;;;;1999.90;999.90;;;;;;;9.32;38.30;102783.13;5013033;27;99296;-68
2021/10/09 11:03:48;;;;;;;1999.90;999.90;;;;;;;9.38;39.20;102788.81;5017337;27;97480;-71
2021/10/09 11:06:17;;;;;;;1999.90;999.90;;;;;;;9.42;39.02;102790.84;5016802;28;98418;-69
2021/10/09 11:08:47;;;;;;;1999.90;999.90;;;;;;;9.46;39.03;102791.94;5001516;28;98786;-70
2021/10/09 11:11:16;;;;;;;1999.90;999.90;;;;;;;9.50;38.93;102786.00;5020931;28;99278;-72
2021/10/09 11:13:48;;;;;;;1999.90;999.90;;;;;;;9.54;38.99;102780.94;5003258;28;97060;-68
2021/10/09 11:16:16;;;;;;;1999.90;999.90;;;;;;;9.59;39.10;102781.19;5016080;27;96963;-69
2021/10/09 11:18:50;;;;;;;1999.90;999.90;;;;;;;9.62;38.85;102781.38;5019034;27;100670;-70
2021/10/09 11:21:19;;;;;;;1999.90;999.90;;;;;;;9.67;39.02;102774.56;5020608;27;99445;-71
2021/10/09 11:23:54;;;;;;;1999.90;999.90;;;;;;;9.73;38.67;102773.19;5009603;27;99014;-70
2021/10/09 11:26:22;;;;;;;1999.90;999.90;;;;;;;9.80;39.08;102769.09;5016647;27;97619;-68
2021/10/09 11:29:00;;;;;;;1999.90;999.90;;;;;;;9.89;39.01;102770.53;5017092;27;97366;-72
2021/10/09 11:31:28;;;;;;;1999.90;999.90;;;;;;;10.13;37.41;102758.59;5014728;28;97721;-71
2021/10/09 11:33:57;;;;;;;1999.90;999.90;;;;;;;10.28;36.34;102761.16;4999255;27;97017;-71
2021/10/09 11:36:26;;;;;;;1999.90;999.90;;;;;;;10.27;37.01;102753.06;5017521;27;97229;-70
2021/10/09 11:39:07;;;;;;;1999.90;999.90;;;;;;;10.31;36.72;102749.75;5012644;27;97821;-69
2021/10/09 11:41:35;;;;;;;1999.90;999.90;;;;;;;10.37;37.30;102752.75;4998244;27;98971;-71
2021/10/09 11:44:19;;;;;;;1999.90;999.90;;;;;;;10.42;36.70;102748.59;5001583;27;97334;-71
2021/10/09 11:46:54;;;;;;;1999.90;999.90;;;;;;;10.46;37.48;102750.59;4970305;27;100191;-70
2021/10/09 11:55:26;;;;;;;1999.90;999.90;;;;;;;10.64;37.53;102746.25;4951459;28;98635;-73
2021/10/09 11:57:54;;;;;;;1999.90;999.90;;;;;;;10.70;37.70;102738.56;4968795;28;97055;-72
2021/10/09 12:00:42;;;;;;;1999.90;999.90;;;;;;;10.74;34.14;102733.47;4969540;28;99415;-71
2021/10/09 12:03:31;;;;;;;1999.90;999.90;;;;;;;10.83;36.20;102743.69;4991305;28;99722;-73
2021/10/09 12:06:07;;;;;;;1999.90;999.90;;;;;;;10.91;37.59;102737.00;5013489;28;97260;-71
2021/10/09 12:08:41;;;;;;;1999.90;999.90;;;;;;;11.13;35.81;102731.91;5013837;28;98152;-73
2021/10/09 12:11:16;;;;;;;1999.90;999.90;;;;;;;11.14;36.02;102731.97;5014050;28;97673;-70
2021/10/09 12:13:48;;;;;;;1999.90;999.90;;;;;;;11.20;36.50;102726.03;5006068;28;97820;-70
2021/10/09 12:16:16;;;;;;;1999.90;999.90;;;;;;;11.27;36.53;102719.28;4984197;27;98164;-73
2021/10/09 12:18:48;;;;;;;1999.90;999.90;;;;;;;11.34;36.51;102724.09;5006782;27;96904;-72
2021/10/09 12:21:21;;;;;;;1999.90;999.90;;;;;;;11.39;36.69;102723.50;4998346;28;98809;-70
2021/10/09 12:23:49;;;;;;;1999.90;999.90;;;;;;;11.48;36.82;102721.25;4995679;27;100072;-72
2021/10/09 12:26:25;;;;;;;1999.90;999.90;;;;;;;11.53;33.99;102717.06;5007368;27;101182;-68
2021/10/09 12:29:11;;;;;;;1999.90;999.90;;;;;;;11.67;35.92;102721.28;4998852;27;97156;-70
2021/10/09 12:31:43;;;;;;;1999.90;999.90;;;;;;;11.77;36.76;102710.22;5018547;27;97681;-69
2021/10/09 12:34:33;;;;;;;1999.90;999.90;;;;;;;11.89;35.67;102718.78;5008946;27;98855;-69
2021/10/09 12:37:27;;;;;;;1999.90;999.90;;;;;;;12.01;35.71;102718.44;5018421;27;97366;-72
2021/10/09 12:40:08;;;;;;;1999.90;999.90;;;;;;;12.13;35.75;102717.25;4996843;27;97302;-69
2021/10/09 12:42:48;;;;;;;1999.90;999.90;;;;;;;12.28;35.80;102710.81;5011020;27;100479;-71
2021/10/09 12:45:17;;;;;;;1999.90;999.90;;;;;;;12.44;36.16;102705.28;4995687;28;99076;-71
2021/10/09 12:47:56;;;;;;;1999.90;999.90;;;;;;;12.62;36.02;102701.66;4997404;27;98252;-72
2021/10/09 12:50:24;;;;;;;1999.90;999.90;;;;;;;12.81;35.78;102693.59;5000083;27;97370;-70
2021/10/09 12:52:53;;;;;;;1999.90;999.90;;;;;;;13.16;35.53;102692.44;4982535;27;99411;-72
2021/10/09 12:55:22;;;;;;;1999.90;999.90;;;;;;;13.62;35.04;102685.38;5008151;27;99134;-72
2021/10/09 12:57:53;;;;;;;1999.90;999.90;;;;;;;14.17;34.43;102683.97;5012386;27;97345;-73